sensor_id;sensor_type;location;lat;lon;timestamp;pressure;altitude;pressure_sealevel;temperature;humidity
23733;BME280;12047;53.450;-2.286;2023-06-10T00:01:57;101353.88;;;18.82;100.00
23733;BME280;12047;53.450;-2.286;2023-06-10T00:07:00;101359.56;;;18.48;100.00
23733;BME280;12047;53.450;-2.286;2023-06-10T00:12:00;101355.44;;;18.21;100.00
23733;BME280;12047;53.450;-2.286;2023-06-10T00:17:01;101350.75;;;18.31;100.00
23733;BME280;12047;53.450;-2.286;2023-06-10T00:22:02;101341.94;;;17.82;100.00
23733;BME280;12047;53.450;-2.286;2023-06-10T00:27:03;101331.19;;;18.06;100.00
23733;BME280;12047;53.450;-2.286;2023-06-10T00:32:04;101345.22;;;18.16;100.00
23733;BME280;12047;53.450;-2.286;2023-06-10T00:37:05;101335.88;;;18.04;100.00
23733;BME280;12047;53.450;-2.286;2023-06-10T00:42:06;101344.41;;;18.08;100.00
23733;BME280;12047;53.450;-2.286;2023-06-10T00:47:07;101340.53;;;18.26;100.00
23733;BME280;12047;53.450;-2.286;2023-06-10T00:52:08;101334.72;;;17.90;100.00
23733;BME280;12047;53.450;-2.286;2023-06-10T00:57:08;101339.59;;;17.62;100.00
23733;BME280;12047;53.450;-2.286;2023-06-10T01:02:09;101336.09;;;18.42;100.00
23733;BME280;12047;53.450;-2.286;2023-06-10T01:12:29;101328.41;;;17.67;100.00
23733;BME280;12047;53.450;-2.286;2023-06-10T01:17:31;101326.22;;;17.79;100.00
23733;BME280;12047;53.450;-2.286;2023-06-10T01:22:32;101322.66;;;18.02;100.00
23733;BME280;12047;53.450;-2.286;2023-06-10T01:27:37;101321.16;;;17.92;100.00
23733;BME280;12047;53.450;-2.286;2023-06-10T01:32:44;101316.81;;;17.34;100.00
23733;BME280;12047;53.450;-2.286;2023-06-10T01:37:46;101319.16;;;17.13;100.00
23733;BME280;12047;53.450;-2.286;2023-06-10T01:42:48;101314.00;;;16.61;100.00
23733;BME280;12047;53.450;-2.286;2023-06-10T01:47:48;101310.97;;;17.39;100.00
23733;BME280;12047;53.450;-2.286;2023-06-10T01:52:49;101306.44;;;16.98;100.00
23733;BME280;12047;53.450;-2.286;2023-06-10T01:57:50;101307.50;;;16.63;100.00
23733;BME280;12047;53.450;-2.286;2023-06-10T02:02:52;101307.81;;;16.52;100.00
23733;BME280;12047;53.450;-2.286;2023-06-10T02:07:52;101308.91;;;16.42;100.00
23733;BME280;12047;53.450;-2.286;2023-06-10T02:12:53;101300.75;;;17.02;100.00
23733;BME280;12047;53.450;-2.286;2023-06-10T02:17:53;101296.34;;;16.84;100.00
23733;BME280;12047;53.450;-2.286;2023-06-10T02:22:55;101292.13;;;16.65;100.00
23733;BME280;12047;53.450;-2.286;2023-06-10T02:27:55;101297.06;;;16.94;100.00
23733;BME280;12047;53.450;-2.286;2023-06-10T02:32:56;101283.88;;;16.59;100.00
23733;BME280;12047;53.450;-2.286;2023-06-10T02:37:56;101274.97;;;17.09;100.00
23733;BME280;12047;53.450;-2.286;2023-06-10T02:42:57;101271.31;;;17.18;100.00
23733;BME280;12047;53.450;-2.286;2023-06-10T02:47:58;101271.63;;;16.90;100.00
23733;BME280;12047;53.450;-2.286;2023-06-10T02:52:59;101273.78;;;16.79;100.00
23733;BME280;12047;53.450;-2.286;2023-06-10T02:57:59;101267.59;;;16.94;100.00
23733;BME280;12047;53.450;-2.286;2023-06-10T03:03:00;101263.25;;;17.18;100.00
23733;BME280;12047;53.450;-2.286;2023-06-10T03:08:03;101253.06;;;17.21;100.00
23733;BME280;12047;53.450;-2.286;2023-06-10T03:13:04;101246.38;;;17.17;100.00
23733;BME280;12047;53.450;-2.286;2023-06-10T03:18:05;101262.59;;;16.91;100.00
23733;BME280;12047;53.450;-2.286;2023-06-10T03:23:06;101251.03;;;16.75;100.00
23733;BME280;12047;53.450;-2.286;2023-06-10T03:28:07;101252.63;;;16.59;100.00
23733;BME280;12047;53.450;-2.286;2023-06-10T03:33:07;101247.34;;;16.76;100.00
23733;BME280;12047;53.450;-2.286;2023-06-10T03:38:08;101247.19;;;16.85;100.00
23733;BME280;12047;53.450;-2.286;2023-06-10T03:43:09;101239.66;;;16.81;100.00
23733;BME280;12047;53.450;-2.286;2023-06-10T03:48:09;101244.59;;;16.51;100.00
23733;BME280;12047;53.450;-2.286;2023-06-10T03:53:11;101240.66;;;16.72;100.00
23733;BME280;12047;53.450;-2.286;2023-06-10T03:58:11;101239.66;;;16.81;100.00
23733;BME280;12047;53.450;-2.286;2023-06-10T04:03:15;101242.81;;;16.68;100.00
23733;BME280;12047;53.450;-2.286;2023-06-10T04:08:15;101247.28;;;16.51;100.00
23733;BME280;12047;53.450;-2.286;2023-06-10T04:13:16;101237.81;;;16.73;100.00
23733;BME280;12047;53.450;-2.286;2023-06-10T04:18:16;101231.97;;;16.94;100.00
23733;BME280;12047;53.450;-2.286;2023-06-10T04:23:17;101238.47;;;16.83;100.00
23733;BME280;12047;53.450;-2.286;2023-06-10T04:28:18;101240.16;;;17.17;100.00
23733;BME280;12047;53.450;-2.286;2023-06-10T04:33:18;101241.34;;;16.90;100.00
23733;BME280;12047;53.450;-2.286;2023-06-10T04:38:19;101249.53;;;16.80;100.00
23733;BME280;12047;53.450;-2.286;2023-06-10T04:43:19;101237.66;;;16.75;100.00
23733;BME280;12047;53.450;-2.286;2023-06-10T04:48:20;101235.81;;;16.91;100.00
23733;BME280;12047;53.450;-2.286;2023-06-10T04:53:21;101230.09;;;17.43;100.00
23733;BME280;12047;53.450;-2.286;2023-06-10T04:58:22;101225.78;;;17.26;100.00
23733;BME280;12047;53.450;-2.286;2023-06-10T05:03:23;101217.75;;;17.02;100.00
23733;BME280;12047;53.450;-2.286;2023-06-10T05:08:23;101214.25;;;17.01;100.00
23733;BME280;12047;53.450;-2.286;2023-06-10T05:13:25;101214.84;;;17.52;100.00
23733;BME280;12047;53.450;-2.286;2023-06-10T05:18:25;101209.47;;;17.68;100.00
23733;BME280;12047;53.450;-2.286;2023-06-10T05:23:26;101214.81;;;17.76;100.00
23733;BME280;12047;53.450;-2.286;2023-06-10T05:28:27;101208.72;;;17.90;100.00
23733;BME280;12047;53.450;-2.286;2023-06-10T05:33:28;101208.94;;;18.20;100.00
23733;BME280;12047;53.450;-2.286;2023-06-10T05:38:28;101215.84;;;18.45;100.00
23733;BME280;12047;53.450;-2.286;2023-06-10T05:43:29;101217.66;;;18.22;100.00
23733;BME280;12047;53.450;-2.286;2023-06-10T05:48:30;101225.13;;;18.57;100.00
23733;BME280;12047;53.450;-2.286;2023-06-10T05:53:31;101239.78;;;18.55;100.00
23733;BME280;12047;53.450;-2.286;2023-06-10T05:58:32;101235.66;;;19.13;100.00
23733;BME280;12047;53.450;-2.286;2023-06-10T06:03:33;101245.59;;;18.89;100.00
23733;BME280;12047;53.450;-2.286;2023-06-10T06:08:33;101241.06;;;18.59;100.00
23733;BME280;12047;53.450;-2.286;2023-06-10T06:13:34;101231.41;;;19.03;100.00
23733;BME280;12047;53.450;-2.286;2023-06-10T06:18:34;101241.47;;;19.77;100.00
23733;BME280;12047;53.450;-2.286;2023-06-10T06:23:35;101248.50;;;19.92;100.00
23733;BME280;12047;53.450;-2.286;2023-06-10T06:28:35;101223.94;;;19.51;100.00
23733;BME280;12047;53.450;-2.286;2023-06-10T06:33:36;101240.59;;;19.61;100.00
23733;BME280;12047;53.450;-2.286;2023-06-10T06:38:36;101236.09;;;19.77;100.00
23733;BME280;12047;53.450;-2.286;2023-06-10T06:43:37;101244.97;;;19.62;100.00
23733;BME280;12047;53.450;-2.286;2023-06-10T06:48:37;101241.38;;;19.70;100.00
23733;BME280;12047;53.450;-2.286;2023-06-10T06:53:38;101233.94;;;20.01;100.00
23733;BME280;12047;53.450;-2.286;2023-06-10T06:58:44;101239.50;;;19.85;100.00
23733;BME280;12047;53.450;-2.286;2023-06-10T07:03:44;101229.59;;;20.36;100.00
23733;BME280;12047;53.450;-2.286;2023-06-10T07:08:45;101232.34;;;20.58;100.00
23733;BME280;12047;53.450;-2.286;2023-06-10T07:13:45;101236.97;;;20.64;100.00
23733;BME280;12047;53.450;-2.286;2023-06-10T07:18:46;101237.09;;;21.41;100.00
23733;BME280;12047;53.450;-2.286;2023-06-10T07:23:46;101241.00;;;21.66;100.00
23733;BME280;12047;53.450;-2.286;2023-06-10T07:28:47;101231.78;;;21.89;100.00
23733;BME280;12047;53.450;-2.286;2023-06-10T07:33:47;101235.00;;;22.05;100.00
23733;BME280;12047;53.450;-2.286;2023-06-10T07:38:48;101241.38;;;22.39;100.00
23733;BME280;12047;53.450;-2.286;2023-06-10T07:43:48;101233.31;;;22.52;100.00
23733;BME280;12047;53.450;-2.286;2023-06-10T07:48:54;101230.41;;;21.99;100.00
23733;BME280;12047;53.450;-2.286;2023-06-10T07:53:55;101215.28;;;22.66;100.00
23733;BME280;12047;53.450;-2.286;2023-06-10T07:58:55;101217.63;;;23.08;100.00
23733;BME280;12047;53.450;-2.286;2023-06-10T08:03:56;101222.38;;;22.73;100.00
23733;BME280;12047;53.450;-2.286;2023-06-10T08:08:56;101227.00;;;23.52;100.00
23733;BME280;12047;53.450;-2.286;2023-06-10T08:13:57;101218.81;;;23.85;100.00
23733;BME280;12047;53.450;-2.286;2023-06-10T08:18:57;101210.97;;;23.37;100.00
23733;BME280;12047;53.450;-2.286;2023-06-10T08:23:58;101209.50;;;23.74;100.00
23733;BME280;12047;53.450;-2.286;2023-06-10T08:28:58;101206.00;;;24.19;100.00
23733;BME280;12047;53.450;-2.286;2023-06-10T08:33:59;101196.69;;;24.77;100.00
23733;BME280;12047;53.450;-2.286;2023-06-10T08:38:59;101197.63;;;25.21;100.00
23733;BME280;12047;53.450;-2.286;2023-06-10T08:44:27;101203.38;;;25.06;100.00
23733;BME280;12047;53.450;-2.286;2023-06-10T08:49:30;101195.69;;;25.03;100.00
23733;BME280;12047;53.450;-2.286;2023-06-10T08:54:35;101193.41;;;26.05;100.00
23733;BME280;12047;53.450;-2.286;2023-06-10T08:59:38;101182.94;;;25.90;98.96
23733;BME280;12047;53.450;-2.286;2023-06-10T09:04:40;101190.75;;;26.17;98.47
23733;BME280;12047;53.450;-2.286;2023-06-10T09:09:42;101184.75;;;26.26;98.20
23733;BME280;12047;53.450;-2.286;2023-06-10T09:14:43;101170.16;;;26.81;94.93
23733;BME280;12047;53.450;-2.286;2023-06-10T09:19:44;101176.16;;;27.13;93.71
23733;BME280;12047;53.450;-2.286;2023-06-10T09:24:46;101170.78;;;26.83;94.53
23733;BME280;12047;53.450;-2.286;2023-06-10T09:29:51;101162.09;;;27.16;95.01
23733;BME280;12047;53.450;-2.286;2023-06-10T09:34:52;101164.09;;;27.67;92.70
23733;BME280;12047;53.450;-2.286;2023-06-10T09:40:11;101169.84;;;28.22;92.15
23733;BME280;12047;53.450;-2.286;2023-06-10T09:45:12;101169.31;;;28.37;89.64
23733;BME280;12047;53.450;-2.286;2023-06-10T09:50:12;101163.13;;;28.01;90.03
23733;BME280;12047;53.450;-2.286;2023-06-10T09:55:13;101157.09;;;28.73;89.44
23733;BME280;12047;53.450;-2.286;2023-06-10T10:00:14;101169.81;;;28.51;88.32
23733;BME280;12047;53.450;-2.286;2023-06-10T10:05:18;101175.94;;;28.41;86.95
23733;BME280;12047;53.450;-2.286;2023-06-10T10:10:20;101180.63;;;28.91;85.44
23733;BME280;12047;53.450;-2.286;2023-06-10T10:15:21;101176.06;;;28.96;84.55
23733;BME280;12047;53.450;-2.286;2023-06-10T10:20:29;101170.63;;;30.12;82.52
23733;BME280;12047;53.450;-2.286;2023-06-10T10:25:37;101172.00;;;29.93;81.55
23733;BME280;12047;53.450;-2.286;2023-06-10T10:30:43;101158.00;;;29.45;82.00
23733;BME280;12047;53.450;-2.286;2023-06-10T10:35:46;101158.28;;;29.88;81.25
23733;BME280;12047;53.450;-2.286;2023-06-10T10:40:47;101157.31;;;29.55;80.26
23733;BME280;12047;53.450;-2.286;2023-06-10T10:46:12;101153.50;;;30.22;80.23
23733;BME280;12047;53.450;-2.286;2023-06-10T10:51:15;101148.53;;;30.45;79.03
23733;BME280;12047;53.450;-2.286;2023-06-10T10:56:16;101145.56;;;29.76;79.68
23733;BME280;12047;53.450;-2.286;2023-06-10T11:01:20;101146.78;;;30.34;78.42
23733;BME280;12047;53.450;-2.286;2023-06-10T11:06:20;101146.63;;;29.97;79.33
23733;BME280;12047;53.450;-2.286;2023-06-10T11:11:25;101143.69;;;30.53;78.46
23733;BME280;12047;53.450;-2.286;2023-06-10T11:16:28;101137.13;;;31.18;75.77
23733;BME280;12047;53.450;-2.286;2023-06-10T11:21:28;101139.09;;;30.90;75.36
23733;BME280;12047;53.450;-2.286;2023-06-10T11:26:30;101132.19;;;31.72;73.04
23733;BME280;12047;53.450;-2.286;2023-06-10T11:31:43;101127.41;;;31.47;72.90
23733;BME280;12047;53.450;-2.286;2023-06-10T11:36:44;101121.56;;;31.28;72.29
23733;BME280;12047;53.450;-2.286;2023-06-10T11:41:45;101122.97;;;31.98;72.13
23733;BME280;12047;53.450;-2.286;2023-06-10T11:46:48;101118.94;;;32.97;70.38
23733;BME280;12047;53.450;-2.286;2023-06-10T11:51:48;101117.78;;;31.92;70.51
23733;BME280;12047;53.450;-2.286;2023-06-10T11:56:49;101109.56;;;32.02;69.97
23733;BME280;12047;53.450;-2.286;2023-06-10T12:01:50;101117.19;;;31.85;70.04
23733;BME280;12047;53.450;-2.286;2023-06-10T12:06:52;101121.59;;;31.96;69.46
23733;BME280;12047;53.450;-2.286;2023-06-10T12:11:58;101129.03;;;31.38;67.53
23733;BME280;12047;53.450;-2.286;2023-06-10T12:17:05;101113.75;;;32.96;66.22
23733;BME280;12047;53.450;-2.286;2023-06-10T12:22:05;101118.44;;;31.57;67.00
23733;BME280;12047;53.450;-2.286;2023-06-10T12:27:11;101121.66;;;32.16;67.85
23733;BME280;12047;53.450;-2.286;2023-06-10T12:32:12;101116.13;;;31.91;66.33
23733;BME280;12047;53.450;-2.286;2023-06-10T12:37:15;101108.28;;;32.81;67.32
23733;BME280;12047;53.450;-2.286;2023-06-10T12:42:16;101113.75;;;31.52;69.35
23733;BME280;12047;53.450;-2.286;2023-06-10T12:47:17;101111.25;;;32.23;68.61
23733;BME280;12047;53.450;-2.286;2023-06-10T12:52:17;101106.56;;;32.08;68.52
23733;BME280;12047;53.450;-2.286;2023-06-10T12:57:18;101103.53;;;32.10;68.57
23733;BME280;12047;53.450;-2.286;2023-06-10T13:02:19;101102.75;;;31.42;70.00
23733;BME280;12047;53.450;-2.286;2023-06-10T13:07:20;101102.16;;;32.18;69.32
23733;BME280;12047;53.450;-2.286;2023-06-10T13:12:23;101097.56;;;32.49;66.73
23733;BME280;12047;53.450;-2.286;2023-06-10T13:17:23;101088.88;;;31.64;66.20
23733;BME280;12047;53.450;-2.286;2023-06-10T13:22:24;101088.75;;;32.11;65.89
23733;BME280;12047;53.450;-2.286;2023-06-10T13:27:25;101079.72;;;32.21;64.42
23733;BME280;12047;53.450;-2.286;2023-06-10T13:32:25;101070.72;;;32.40;64.36
23733;BME280;12047;53.450;-2.286;2023-06-10T13:37:26;101066.03;;;32.36;64.86
23733;BME280;12047;53.450;-2.286;2023-06-10T13:42:26;101056.41;;;32.79;64.34
23733;BME280;12047;53.450;-2.286;2023-06-10T13:47:29;101050.94;;;32.59;64.40
23733;BME280;12047;53.450;-2.286;2023-06-10T13:52:30;101051.16;;;32.93;60.88
23733;BME280;12047;53.450;-2.286;2023-06-10T13:57:30;101054.50;;;32.59;61.60
23733;BME280;12047;53.450;-2.286;2023-06-10T14:02:30;101052.84;;;32.43;61.80
23733;BME280;12047;53.450;-2.286;2023-06-10T14:07:31;101050.06;;;31.82;62.06
23733;BME280;12047;53.450;-2.286;2023-06-10T14:12:35;101042.97;;;32.88;61.18
23733;BME280;12047;53.450;-2.286;2023-06-10T14:17:39;101052.03;;;32.42;60.32
23733;BME280;12047;53.450;-2.286;2023-06-10T14:22:39;101033.50;;;33.29;61.89
23733;BME280;12047;53.450;-2.286;2023-06-10T14:27:40;101035.84;;;32.82;60.47
23733;BME280;12047;53.450;-2.286;2023-06-10T14:32:41;101038.53;;;32.97;60.38
23733;BME280;12047;53.450;-2.286;2023-06-10T14:37:42;101044.59;;;32.84;60.18
23733;BME280;12047;53.450;-2.286;2023-06-10T14:42:45;101040.53;;;32.35;60.12
23733;BME280;12047;53.450;-2.286;2023-06-10T14:47:45;101045.22;;;33.45;59.43
23733;BME280;12047;53.450;-2.286;2023-06-10T14:52:47;101048.94;;;33.00;60.93
23733;BME280;12047;53.450;-2.286;2023-06-10T14:57:47;101040.06;;;33.38;59.84
23733;BME280;12047;53.450;-2.286;2023-06-10T15:02:48;101059.31;;;33.18;58.43
23733;BME280;12047;53.450;-2.286;2023-06-10T15:07:49;101036.13;;;33.55;58.23
23733;BME280;12047;53.450;-2.286;2023-06-10T15:12:49;101043.63;;;33.39;59.32
23733;BME280;12047;53.450;-2.286;2023-06-10T15:17:56;101032.69;;;33.19;61.27
23733;BME280;12047;53.450;-2.286;2023-06-10T15:22:57;101025.63;;;32.97;60.49
23733;BME280;12047;53.450;-2.286;2023-06-10T15:27:57;101021.13;;;33.22;61.51
23733;BME280;12047;53.450;-2.286;2023-06-10T15:32:58;101021.13;;;33.22;59.75
23733;BME280;12047;53.450;-2.286;2023-06-10T15:37:58;101022.41;;;33.94;59.07
23733;BME280;12047;53.450;-2.286;2023-06-10T15:43:02;101002.34;;;33.49;58.93
23733;BME280;12047;53.450;-2.286;2023-06-10T15:48:03;101011.97;;;32.77;60.59
23733;BME280;12047;53.450;-2.286;2023-06-10T15:53:04;101014.97;;;32.91;60.34
23733;BME280;12047;53.450;-2.286;2023-06-10T15:58:04;101006.41;;;32.97;56.34
23733;BME280;12047;53.450;-2.286;2023-06-10T16:03:05;100995.31;;;33.77;57.24
23733;BME280;12047;53.450;-2.286;2023-06-10T16:08:05;100999.41;;;33.85;56.11
23733;BME280;12047;53.450;-2.286;2023-06-10T16:13:06;100994.97;;;33.44;57.19
23733;BME280;12047;53.450;-2.286;2023-06-10T16:18:06;100991.94;;;32.82;57.12
23733;BME280;12047;53.450;-2.286;2023-06-10T16:23:07;100984.06;;;33.19;55.85
23733;BME280;12047;53.450;-2.286;2023-06-10T16:28:07;100977.53;;;33.64;55.89
23733;BME280;12047;53.450;-2.286;2023-06-10T16:33:08;100974.88;;;32.90;56.91
23733;BME280;12047;53.450;-2.286;2023-06-10T16:38:09;100979.41;;;33.20;56.73
23733;BME280;12047;53.450;-2.286;2023-06-10T16:43:09;100963.44;;;33.81;56.44
23733;BME280;12047;53.450;-2.286;2023-06-10T16:48:10;100973.09;;;33.29;56.39
23733;BME280;12047;53.450;-2.286;2023-06-10T16:53:10;100968.13;;;33.31;55.84
23733;BME280;12047;53.450;-2.286;2023-06-10T16:58:11;100959.88;;;33.75;55.87
23733;BME280;12047;53.450;-2.286;2023-06-10T17:03:12;100964.56;;;33.26;57.88
23733;BME280;12047;53.450;-2.286;2023-06-10T17:08:12;100957.84;;;32.93;57.21
23733;BME280;12047;53.450;-2.286;2023-06-10T17:13:13;100962.38;;;33.23;57.17
23733;BME280;12047;53.450;-2.286;2023-06-10T17:18:13;100955.06;;;32.98;58.37
23733;BME280;12047;53.450;-2.286;2023-06-10T17:23:14;100964.53;;;32.56;59.45
23733;BME280;12047;53.450;-2.286;2023-06-10T17:28:14;100954.59;;;32.70;59.72
23733;BME280;12047;53.450;-2.286;2023-06-10T17:33:15;100962.22;;;32.94;59.51
23733;BME280;12047;53.450;-2.286;2023-06-10T17:38:15;100965.88;;;32.64;60.07
23733;BME280;12047;53.450;-2.286;2023-06-10T17:43:17;100965.06;;;32.53;61.43
23733;BME280;12047;53.450;-2.286;2023-06-10T17:48:17;100957.81;;;32.98;62.55
23733;BME280;12047;53.450;-2.286;2023-06-10T17:53:18;100962.09;;;32.34;63.92
23733;BME280;12047;53.450;-2.286;2023-06-10T17:58:19;100968.97;;;32.17;65.00
23733;BME280;12047;53.450;-2.286;2023-06-10T18:03:19;100978.00;;;31.82;65.47
23733;BME280;12047;53.450;-2.286;2023-06-10T18:08:26;100986.41;;;31.60;66.10
23733;BME280;12047;53.450;-2.286;2023-06-10T18:13:28;100994.91;;;31.58;66.30
23733;BME280;12047;53.450;-2.286;2023-06-10T18:18:29;101006.53;;;31.13;66.71
23733;BME280;12047;53.450;-2.286;2023-06-10T18:23:29;101016.75;;;31.33;66.66
23733;BME280;12047;53.450;-2.286;2023-06-10T18:28:29;101024.94;;;31.28;67.04
23733;BME280;12047;53.450;-2.286;2023-06-10T18:33:30;101029.66;;;30.90;67.81
23733;BME280;12047;53.450;-2.286;2023-06-10T18:38:31;101032.66;;;30.89;67.99
23733;BME280;12047;53.450;-2.286;2023-06-10T18:43:31;101035.00;;;31.12;69.17
23733;BME280;12047;53.450;-2.286;2023-06-10T18:48:31;101048.97;;;28.95;76.18
23733;BME280;12047;53.450;-2.286;2023-06-10T18:53:32;101060.53;;;30.17;76.69
23733;BME280;12047;53.450;-2.286;2023-06-10T18:58:33;101087.53;;;30.45;75.99
23733;BME280;12047;53.450;-2.286;2023-06-10T19:03:34;101130.78;;;30.21;78.04
23733;BME280;12047;53.450;-2.286;2023-06-10T19:08:35;101146.16;;;29.57;85.61
23733;BME280;12047;53.450;-2.286;2023-06-10T19:13:36;101153.00;;;29.04;90.73
23733;BME280;12047;53.450;-2.286;2023-06-10T19:18:36;101162.72;;;28.50;95.80
23733;BME280;12047;53.450;-2.286;2023-06-10T19:23:38;101144.56;;;28.72;100.00
23733;BME280;12047;53.450;-2.286;2023-06-10T19:28:38;101171.97;;;28.49;100.00
23733;BME280;12047;53.450;-2.286;2023-06-10T19:33:39;101175.69;;;28.02;100.00
23733;BME280;12047;53.450;-2.286;2023-06-10T19:38:39;101189.72;;;28.51;100.00
23733;BME280;12047;53.450;-2.286;2023-06-10T19:43:40;101226.78;;;28.35;100.00
23733;BME280;12047;53.450;-2.286;2023-06-10T19:48:42;101239.25;;;28.31;100.00
23733;BME280;12047;53.450;-2.286;2023-06-10T19:53:44;101242.72;;;28.15;100.00
23733;BME280;12047;53.450;-2.286;2023-06-10T19:58:45;101235.19;;;27.94;100.00
23733;BME280;12047;53.450;-2.286;2023-06-10T20:03:46;101245.41;;;28.55;100.00
23733;BME280;12047;53.450;-2.286;2023-06-10T20:08:47;101247.50;;;27.38;100.00
23733;BME280;12047;53.450;-2.286;2023-06-10T20:13:47;101256.38;;;27.92;100.00
23733;BME280;12047;53.450;-2.286;2023-06-10T20:18:51;101257.13;;;26.99;100.00
23733;BME280;12047;53.450;-2.286;2023-06-10T20:23:52;101260.81;;;27.04;100.00
23733;BME280;12047;53.450;-2.286;2023-06-10T20:28:53;101255.59;;;27.03;100.00
23733;BME280;12047;53.450;-2.286;2023-06-10T20:33:53;101269.78;;;26.75;100.00
23733;BME280;12047;53.450;-2.286;2023-06-10T20:38:54;101282.63;;;27.51;100.00
23733;BME280;12047;53.450;-2.286;2023-06-10T20:43:54;101285.56;;;27.26;100.00
23733;BME280;12047;53.450;-2.286;2023-06-10T20:48:55;101297.34;;;26.78;100.00
23733;BME280;12047;53.450;-2.286;2023-06-10T20:53:55;101300.50;;;26.64;100.00
23733;BME280;12047;53.450;-2.286;2023-06-10T20:58:56;101303.66;;;26.24;100.00
23733;BME280;12047;53.450;-2.286;2023-06-10T21:03:56;101304.94;;;26.03;100.00
23733;BME280;12047;53.450;-2.286;2023-06-10T21:08:57;101299.34;;;25.55;100.00
23733;BME280;12047;53.450;-2.286;2023-06-10T21:13:57;101301.53;;;25.71;100.00
23733;BME280;12047;53.450;-2.286;2023-06-10T21:18:58;101293.94;;;25.80;100.00
23733;BME280;12047;53.450;-2.286;2023-06-10T21:23:58;101294.75;;;25.81;100.00
23733;BME280;12047;53.450;-2.286;2023-06-10T21:28:59;101284.56;;;25.76;100.00
23733;BME280;12047;53.450;-2.286;2023-06-10T21:33:59;101293.88;;;25.87;100.00
23733;BME280;12047;53.450;-2.286;2023-06-10T21:39:00;101287.09;;;26.32;100.00
23733;BME280;12047;53.450;-2.286;2023-06-10T21:44:00;101281.06;;;26.12;100.00
23733;BME280;12047;53.450;-2.286;2023-06-10T21:49:01;101276.53;;;26.06;100.00
23733;BME280;12047;53.450;-2.286;2023-06-10T21:54:02;101283.22;;;25.67;100.00
23733;BME280;12047;53.450;-2.286;2023-06-10T21:59:03;101272.84;;;26.37;100.00
23733;BME280;12047;53.450;-2.286;2023-06-10T22:04:04;101279.56;;;26.16;100.00
23733;BME280;12047;53.450;-2.286;2023-06-10T22:09:04;101283.75;;;26.49;100.00
23733;BME280;12047;53.450;-2.286;2023-06-10T22:14:05;101266.88;;;26.10;100.00
23733;BME280;12047;53.450;-2.286;2023-06-10T22:19:06;101268.03;;;26.69;100.00
23733;BME280;12047;53.450;-2.286;2023-06-10T22:24:07;101251.88;;;25.89;100.00
23733;BME280;12047;53.450;-2.286;2023-06-10T22:29:08;101255.13;;;25.98;100.00
23733;BME280;12047;53.450;-2.286;2023-06-10T22:34:08;101243.94;;;25.69;100.00
23733;BME280;12047;53.450;-2.286;2023-06-10T22:39:09;101243.78;;;26.37;100.00
23733;BME280;12047;53.450;-2.286;2023-06-10T22:44:12;101224.53;;;26.02;100.00
23733;BME280;12047;53.450;-2.286;2023-06-10T22:49:12;101234.59;;;26.20;100.00
23733;BME280;12047;53.450;-2.286;2023-06-10T22:54:13;101236.38;;;26.45;100.00
23733;BME280;12047;53.450;-2.286;2023-06-10T22:59:14;101234.69;;;26.25;100.00
23733;BME280;12047;53.450;-2.286;2023-06-10T23:04:14;101226.59;;;25.70;100.00
23733;BME280;12047;53.450;-2.286;2023-06-10T23:09:15;101222.69;;;25.85;100.00
23733;BME280;12047;53.450;-2.286;2023-06-10T23:14:16;101212.09;;;25.76;100.00
23733;BME280;12047;53.450;-2.286;2023-06-10T23:19:16;101211.59;;;25.68;100.00
23733;BME280;12047;53.450;-2.286;2023-06-10T23:24:24;101204.97;;;25.57;100.00
23733;BME280;12047;53.450;-2.286;2023-06-10T23:29:30;101199.91;;;25.86;100.00
23733;BME280;12047;53.450;-2.286;2023-06-10T23:34:31;101220.25;;;25.33;100.00
23733;BME280;12047;53.450;-2.286;2023-06-10T23:39:31;101214.97;;;25.20;100.00
23733;BME280;12047;53.450;-2.286;2023-06-10T23:44:32;101200.31;;;25.46;100.00
23733;BME280;12047;53.450;-2.286;2023-06-10T23:49:32;101194.09;;;25.64;100.00
23733;BME280;12047;53.450;-2.286;2023-06-10T23:54:33;101190.13;;;24.98;100.00
23733;BME280;12047;53.450;-2.286;2023-06-10T23:59:34;101181.16;;;25.41;100.00
